Time;durP1;ratioP1;P1;durP2;ratioP2;P2;SDS_P1;SDS_P2;PMS_P1;PMS_P2;Temp;Humidity;BMP_temperature;BMP_pressure;BME280_temperature;BME280_humidity;BME280_pressure;Samples;Min_cycle;Max_cycle;Signal;HPM_P1;HPM_P2
2021/03/17 00:02:16;;;;;;;;;;;9.70;91.40;;;;;;5054031;28;19932;-57
2021/03/17 00:05:02;;;;;;;;;;;9.60;91.40;;;;;;5053953;28;19924;-57
2021/03/17 00:07:57;;;;;;;;;;;9.50;91.50;;;;;;5053870;28;20017;-57
2021/03/17 00:10:45;;;;;;;;;;;9.50;91.50;;;;;;5038932;28;19929;-57
2021/03/17 00:13:31;;;;;;;;;;;9.50;91.40;;;;;;5038991;28;19929;-57
2021/03/17 00:16:17;;;;;;;;;;;9.50;91.50;;;;;;5053959;28;19931;-56
2021/03/17 00:19:06;;;;;;;;;;;9.40;91.50;;;;;;5053974;28;19931;-57
2021/03/17 00:21:55;;;;;;;;;;;9.40;91.60;;;;;;5035823;28;20094;-57
2021/03/17 00:24:40;;;;;;;;;;;9.30;91.50;;;;;;5053689;28;19932;-57
2021/03/17 00:27:29;;;;;;;;;;;9.30;91.60;;;;;;5053901;28;19932;-57
2021/03/17 00:30:18;;;;;;;;;;;9.30;91.60;;;;;;5036178;28;19931;-57
2021/03/17 00:33:07;;;;;;;;;;;9.30;91.70;;;;;;5038728;28;20013;-57
2021/03/17 00:35:53;;;;;;;;;;;9.20;91.60;;;;;;5022153;28;19963;-57
2021/03/17 00:38:43;;;;;;;;;;;9.10;91.70;;;;;;5053715;28;19936;-55
2021/03/17 00:41:30;;;;;;;;;;;9.10;91.70;;;;;;5053659;28;20374;-57
2021/03/17 00:44:16;;;;;;;;;;;9.10;91.80;;;;;;5038929;28;19925;-57
2021/03/17 00:47:04;;;;;;;;;;;9.10;91.60;;;;;;5053688;28;19929;-57
2021/03/17 00:49:35;;;;;;;;;;;9.00;91.70;;;;;;5019370;28;19925;-57
2021/03/17 00:52:05;;;;;;;;;;;9.00;91.80;;;;;;5053759;28;20389;-57
2021/03/17 00:54:50;;;;;;;;;;;9.00;92.20;;;;;;5053629;28;20039;-56
2021/03/17 00:57:36;;;;;;;;;;;8.70;91.90;;;;;;5053497;28;19929;-53
2021/03/17 01:00:05;;;;;;;;;;;8.70;92.30;;;;;;5053293;28;19978;-57
2021/03/17 01:02:33;;;;;;;;;;;8.80;92.50;;;;;;5053404;28;19925;-56
2021/03/17 01:05:07;;;;;;;;;;;8.80;92.60;;;;;;5053231;28;19929;-56
2021/03/17 01:07:40;;;;;;;;;;;8.90;92.70;;;;;;5003368;28;19925;-56
2021/03/17 01:10:12;;;;;;;;;;;8.80;92.70;;;;;;5019369;28;20028;-57
2021/03/17 01:12:41;;;;;;;;;;;8.80;92.70;;;;;;5053246;28;19932;-57
2021/03/17 01:15:10;;;;;;;;;;;8.80;93.00;;;;;;5040555;28;19971;-58
2021/03/17 01:17:37;;;;;;;;;;;8.90;93.00;;;;;;5018963;28;19925;-57
2021/03/17 01:20:05;;;;;;;;;;;8.90;93.00;;;;;;5053327;28;19925;-56
2021/03/17 01:22:32;;;;;;;;;;;8.90;93.10;;;;;;5035435;28;19925;-57
2021/03/17 01:24:59;;;;;;;;;;;8.90;93.10;;;;;;5019048;28;19928;-57
2021/03/17 01:27:27;;;;;;;;;;;8.80;93.10;;;;;;5035353;28;19925;-57
2021/03/17 01:29:54;;;;;;;;;;;8.80;93.20;;;;;;5051924;28;20022;-57
2021/03/17 01:32:21;;;;;;;;;;;8.80;93.30;;;;;;5035233;28;19929;-57
2021/03/17 01:34:49;;;;;;;;;;;8.80;93.40;;;;;;5038492;28;19960;-58
2021/03/17 01:37:16;;;;;;;;;;;8.80;93.40;;;;;;5038850;28;19925;-56
2021/03/17 01:39:45;;;;;;;;;;;8.80;93.40;;;;;;5038745;28;20024;-58
2021/03/17 01:42:12;;;;;;;;;;;8.80;93.40;;;;;;5038907;28;19929;-57
2021/03/17 01:44:40;;;;;;;;;;;8.80;93.40;;;;;;5038711;28;19925;-58
2021/03/17 01:47:07;;;;;;;;;;;8.80;93.40;;;;;;5038619;28;19929;-58
2021/03/17 01:49:34;;;;;;;;;;;8.80;93.40;;;;;;5038781;28;19932;-57
2021/03/17 01:52:08;;;;;;;;;;;8.80;93.20;;;;;;5038123;28;19931;-57
2021/03/17 01:54:35;;;;;;;;;;;8.80;93.50;;;;;;5038720;28;19929;-57
2021/03/17 01:57:07;;;;;;;;;;;8.70;93.40;;;;;;5038498;28;19928;-57
2021/03/17 01:59:40;;;;;;;;;;;8.80;93.50;;;;;;5038286;28;19925;-57
2021/03/17 02:02:08;;;;;;;;;;;8.70;93.60;;;;;;5054874;28;19958;-58
2021/03/17 02:04:35;;;;;;;;;;;8.70;93.40;;;;;;5056011;28;19925;-56
2021/03/17 02:07:02;;;;;;;;;;;8.80;93.40;;;;;;5038130;28;19929;-57
2021/03/17 02:09:29;;;;;;;;;;;8.80;93.40;;;;;;5056093;28;19924;-56
2021/03/17 02:12:10;;;;;;;;;;;8.70;93.40;;;;;;5021753;28;19925;-54
2021/03/17 02:14:46;;;;;;;;;;;8.70;93.30;;;;;;5054938;28;19978;-57
2021/03/17 02:17:15;;;;;;;;;;;8.70;93.20;;;;;;5054844;28;19924;-57
2021/03/17 02:19:46;;;;;;;;;;;8.70;93.30;;;;;;5037945;28;19929;-57
2021/03/17 02:22:31;;;;;;;;;;;8.70;93.30;;;;;;5056047;28;19924;-57
2021/03/17 02:24:59;;;;;;;;;;;8.70;93.30;;;;;;5055094;28;20437;-57
2021/03/17 02:27:26;;;;;;;;;;;8.70;93.30;;;;;;5038423;28;19925;-56
2021/03/17 02:30:02;;;;;;;;;;;8.50;93.30;;;;;;5037849;28;20326;-56
2021/03/17 02:32:32;;;;;;;;;;;8.50;93.30;;;;;;5054533;28;19925;-56
2021/03/17 02:35:02;;;;;;;;;;;8.50;93.20;;;;;;5038034;28;19925;-56
2021/03/17 02:37:31;;;;;;;;;;;8.50;93.20;;;;;;5037811;28;20284;-56
2021/03/17 02:40:00;;;;;;;;;;;8.60;93.20;;;;;;5037769;28;19925;-56
2021/03/17 02:42:30;;;;;;;;;;;8.50;93.20;;;;;;5054406;28;19925;-57
2021/03/17 02:45:01;;;;;;;;;;;8.50;93.10;;;;;;5020947;28;20010;-57
2021/03/17 02:47:31;;;;;;;;;;;8.50;93.10;;;;;;5054261;28;19978;-57
2021/03/17 02:50:00;;;;;;;;;;;8.50;93.10;;;;;;5037437;28;19924;-56
2021/03/17 02:52:31;;;;;;;;;;;8.50;92.90;;;;;;5037453;28;20290;-56
2021/03/17 02:54:59;;;;;;;;;;;8.50;92.90;;;;;;5021216;28;19925;-56
2021/03/17 02:57:26;;;;;;;;;;;8.60;92.90;;;;;;5048476;28;19964;-56
2021/03/17 02:59:57;;;;;;;;;;;8.50;92.80;;;;;;5055064;28;20018;-56
2021/03/17 03:02:24;;;;;;;;;;;8.50;92.80;;;;;;5054952;28;19932;-58
2021/03/17 03:04:52;;;;;;;;;;;8.50;92.60;;;;;;5037327;28;19939;-56
2021/03/17 03:07:21;;;;;;;;;;;8.40;92.60;;;;;;5020675;28;19956;-57
2021/03/17 03:09:49;;;;;;;;;;;8.40;92.60;;;;;;5037185;28;20379;-54
2021/03/17 03:12:16;;;;;;;;;;;8.40;92.60;;;;;;5037249;28;19932;-57
2021/03/17 03:14:47;;;;;;;;;;;8.40;92.60;;;;;;5037138;28;19925;-56
2021/03/17 03:17:14;;;;;;;;;;;8.50;92.50;;;;;;5020475;28;19960;-57
2021/03/17 03:19:47;;;;;;;;;;;8.40;92.50;;;;;;5054682;28;19931;-56
2021/03/17 03:22:15;;;;;;;;;;;8.40;92.60;;;;;;5021112;28;19964;-57
2021/03/17 03:24:47;;;;;;;;;;;8.40;92.70;;;;;;5021207;28;20019;-56
2021/03/17 03:27:14;;;;;;;;;;;8.40;92.80;;;;;;5054654;28;20302;-56
2021/03/17 03:29:41;;;;;;;;;;;8.40;92.70;;;;;;5036715;28;19929;-57
2021/03/17 03:32:09;;;;;;;;;;;8.40;92.70;;;;;;5054490;28;20452;-57
2021/03/17 03:34:37;;;;;;;;;;;8.40;92.80;;;;;;5054361;28;19925;-57
2021/03/17 03:37:06;;;;;;;;;;;8.40;92.90;;;;;;5036533;28;19925;-53
2021/03/17 03:39:34;;;;;;;;;;;8.40;92.90;;;;;;5036731;28;19968;-55
2021/03/17 03:42:01;;;;;;;;;;;8.30;93.00;;;;;;5020493;28;19925;-56
2021/03/17 03:44:28;;;;;;;;;;;8.20;93.30;;;;;;5020139;28;19928;-56
2021/03/17 03:46:56;;;;;;;;;;;8.20;93.50;;;;;;5036574;28;19928;-55
2021/03/17 03:49:26;;;;;;;;;;;8.20;93.60;;;;;;5054206;28;19925;-56
2021/03/17 03:52:04;;;;;;;;;;;8.20;93.60;;;;;;5054170;28;19932;-54
2021/03/17 03:54:41;;;;;;;;;;;8.20;93.70;;;;;;5036561;28;19968;-55
2021/03/17 03:57:13;;;;;;;;;;;8.00;93.80;;;;;;5036036;28;20405;-55
2021/03/17 03:59:48;;;;;;;;;;;8.00;94.10;;;;;;5020010;28;19926;-56
2021/03/17 04:02:32;;;;;;;;;;;7.80;94.20;;;;;;5019926;28;19929;-57
2021/03/17 04:05:00;;;;;;;;;;;7.80;94.30;;;;;;5036383;28;19954;-56
2021/03/17 04:07:32;;;;;;;;;;;7.80;94.30;;;;;;5020304;28;19932;-56
2021/03/17 04:10:02;;;;;;;;;;;7.80;94.50;;;;;;5003540;28;19924;-56
2021/03/17 04:12:33;;;;;;;;;;;7.80;94.60;;;;;;5053995;28;20014;-54
2021/03/17 04:15:01;;;;;;;;;;;7.90;94.70;;;;;;5054130;28;19925;-57
2021/03/17 04:17:35;;;;;;;;;;;7.90;94.70;;;;;;5036747;28;20375;-56
2021/03/17 04:20:08;;;;;;;;;;;8.00;94.80;;;;;;5053737;28;19925;-55
2021/03/17 04:22:35;;;;;;;;;;;8.00;94.90;;;;;;5036206;28;19932;-54
2021/03/17 04:25:05;;;;;;;;;;;8.00;95.00;;;;;;5053776;28;19967;-57
2021/03/17 04:27:33;;;;;;;;;;;7.90;95.20;;;;;;5036024;28;19928;-56
2021/03/17 04:30:04;;;;;;;;;;;7.90;95.40;;;;;;5036337;28;20031;-57
2021/03/17 04:32:32;;;;;;;;;;;7.80;95.40;;;;;;5019728;28;20355;-56
2021/03/17 04:35:02;;;;;;;;;;;7.90;95.60;;;;;;5053626;28;19928;-57
2021/03/17 04:37:30;;;;;;;;;;;7.90;95.60;;;;;;5036080;28;19925;-56
2021/03/17 04:40:03;;;;;;;;;;;7.80;95.60;;;;;;5036069;28;19939;-57
2021/03/17 04:42:40;;;;;;;;;;;7.90;95.70;;;;;;5036862;28;19925;-58
2021/03/17 04:45:08;;;;;;;;;;;7.90;95.90;;;;;;5035952;28;19929;-57
2021/03/17 04:47:35;;;;;;;;;;;7.90;95.90;;;;;;5035922;28;19939;-56
2021/03/17 04:50:02;;;;;;;;;;;8.00;95.80;;;;;;5035946;28;19931;-56
2021/03/17 04:52:33;;;;;;;;;;;8.00;95.80;;;;;;5019427;28;20390;-56
2021/03/17 04:55:00;;;;;;;;;;;8.00;96.00;;;;;;5036162;28;19924;-56
2021/03/17 04:57:31;;;;;;;;;;;8.00;96.20;;;;;;5035808;28;19932;-56
2021/03/17 04:59:59;;;;;;;;;;;7.90;96.10;;;;;;5053333;28;19925;-56
2021/03/17 05:02:28;;;;;;;;;;;8.00;96.20;;;;;;5035785;28;19924;-56
2021/03/17 05:04:58;;;;;;;;;;;7.90;96.30;;;;;;5019027;28;19925;-56
2021/03/17 05:07:28;;;;;;;;;;;7.90;96.40;;;;;;5020554;28;20375;-55
2021/03/17 05:09:58;;;;;;;;;;;7.90;96.40;;;;;;5057184;28;19924;-56
2021/03/17 05:12:26;;;;;;;;;;;8.00;96.40;;;;;;5039332;28;20276;-56
2021/03/17 05:14:53;;;;;;;;;;;7.90;96.40;;;;;;5039391;28;19924;-57
2021/03/17 05:17:26;;;;;;;;;;;8.00;96.50;;;;;;5057164;28;19929;-57
2021/03/17 05:19:54;;;;;;;;;;;7.90;96.40;;;;;;5039111;28;19931;-56
2021/03/17 05:22:24;;;;;;;;;;;8.00;96.60;;;;;;5039235;28;19931;-55
2021/03/17 05:24:51;;;;;;;;;;;8.00;96.50;;;;;;5039377;28;19929;-55
2021/03/17 05:27:20;;;;;;;;;;;8.00;96.50;;;;;;5022805;28;19931;-54
2021/03/17 05:29:48;;;;;;;;;;;8.00;96.50;;;;;;5056762;28;20420;-56
2021/03/17 05:32:16;;;;;;;;;;;8.10;96.60;;;;;;5063706;28;20397;-56
2021/03/17 05:35:03;;;;;;;;;;;8.10;96.40;;;;;;5059461;28;19932;-56
2021/03/17 05:37:30;;;;;;;;;;;8.10;96.40;;;;;;5056691;28;19979;-56
2021/03/17 05:40:00;;;;;;;;;;;8.30;96.50;;;;;;5067540;28;19970;-57
2021/03/17 05:42:27;;;;;;;;;;;8.50;96.50;;;;;;5069082;28;19931;-58
2021/03/17 05:45:01;;;;;;;;;;;8.60;96.30;;;;;;5062988;28;19954;-57
2021/03/17 05:47:31;;;;;;;;;;;8.90;95.90;;;;;;5047305;28;19924;-57
2021/03/17 05:49:59;;;;;;;;;;;9.00;95.50;;;;;;5048885;28;19947;-57
2021/03/17 05:52:27;;;;;;;;;;;9.20;95.30;;;;;;5058623;28;19924;-58
2021/03/17 05:54:54;;;;;;;;;;;9.20;95.20;;;;;;5036093;28;19991;-57
2021/03/17 05:57:22;;;;;;;;;;;9.30;95.10;;;;;;5053828;28;19939;-58
2021/03/17 05:59:49;;;;;;;;;;;9.40;95.00;;;;;;5050003;28;19925;-55
2021/03/17 06:02:17;;;;;;;;;;;9.50;94.90;;;;;;5035837;28;20387;-56
2021/03/17 06:04:44;;;;;;;;;;;9.60;94.60;;;;;;5033488;28;20382;-57
2021/03/17 06:07:17;;;;;;;;;;;9.40;94.40;;;;;;5039627;28;19920;-58
2021/03/17 06:09:45;;;;;;;;;;;9.40;94.60;;;;;;5054204;28;19928;-57
2021/03/17 06:12:13;;;;;;;;;;;9.20;94.80;;;;;;5055535;28;19926;-55
2021/03/17 06:14:42;;;;;;;;;;;9.10;95.00;;;;;;5056136;28;19927;-57
2021/03/17 06:17:13;;;;;;;;;;;9.00;95.00;;;;;;5038664;28;19991;-56
2021/03/17 06:19:42;;;;;;;;;;;8.90;94.80;;;;;;5037829;28;20255;-56
2021/03/17 06:22:09;;;;;;;;;;;8.80;94.80;;;;;;5038362;28;20015;-57
2021/03/17 06:24:37;;;;;;;;;;;8.80;94.90;;;;;;5038054;28;19925;-55
2021/03/17 06:27:04;;;;;;;;;;;8.80;94.90;;;;;;5055741;28;19921;-56
2021/03/17 06:29:31;;;;;;;;;;;8.90;94.50;;;;;;5055780;28;19927;-57
2021/03/17 06:31:59;;;;;;;;;;;8.90;94.60;;;;;;5055692;28;20065;-56
2021/03/17 06:34:26;;;;;;;;;;;8.80;95.40;;;;;;5037990;28;19928;-57
2021/03/17 06:36:55;;;;;;;;;;;8.80;96.40;;;;;;5037749;28;20028;-57
2021/03/17 06:39:22;;;;;;;;;;;8.80;96.80;;;;;;5038009;28;19971;-55
2021/03/17 06:41:53;;;;;;;;;;;8.80;97.20;;;;;;5055535;28;19921;-56
2021/03/17 06:44:26;;;;;;;;;;;8.60;97.70;;;;;;5038218;28;19971;-55
2021/03/17 06:47:31;;;;;;;;;;;8.50;98.20;;;;;;5037882;28;19921;-56
2021/03/17 06:49:59;;;;;;;;;;;8.50;98.90;;;;;;4996964;28;19921;-56
2021/03/17 06:52:26;;;;;;;;;;;8.50;98.90;;;;;;4997237;28;20378;-56
2021/03/17 06:55:12;;;;;;;;;;;8.50;98.90;;;;;;5016838;28;20007;-56
2021/03/17 06:57:40;;;;;;;;;;;8.50;98.80;;;;;;5037184;28;19921;-56
2021/03/17 07:00:17;;;;;;;;;;;8.60;98.80;;;;;;5054859;28;19928;-54
2021/03/17 07:02:52;;;;;;;;;;;8.70;98.70;;;;;;5037372;28;20282;-56
2021/03/17 07:05:20;;;;;;;;;;;8.80;98.30;;;;;;5020391;28;19927;-55
2021/03/17 07:07:48;;;;;;;;;;;8.90;98.50;;;;;;5037142;28;19974;-56
2021/03/17 07:10:31;;;;;;;;;;;8.90;98.70;;;;;;5020446;28;20331;-56
2021/03/17 07:13:05;;;;;;;;;;;9.00;98.70;;;;;;5021047;28;19921;-54
2021/03/17 07:15:35;;;;;;;;;;;9.10;98.90;;;;;;5036922;28;20420;-56
2021/03/17 07:18:20;;;;;;;;;;;9.30;99.10;;;;;;5037224;28;20282;-57
2021/03/17 07:21:00;;;;;;;;;;;9.40;99.00;;;;;;5036779;28;20355;-57
2021/03/17 07:23:33;;;;;;;;;;;9.60;99.30;;;;;;5036732;28;20108;-55
2021/03/17 07:26:20;;;;;;;;;;;9.80;99.40;;;;;;5036833;28;19927;-55
2021/03/17 07:28:51;;;;;;;;;;;10.20;98.80;;;;;;5037265;28;19960;-55
2021/03/17 07:31:27;;;;;;;;;;;10.60;97.60;;;;;;5053218;28;19920;-56
2021/03/17 07:34:06;;;;;;;;;;;10.90;96.80;;;;;;5054294;28;20023;-56
2021/03/17 07:37:03;;;;;;;;;;;11.30;96.30;;;;;;5038112;28;20016;-58
2021/03/17 07:39:31;;;;;;;;;;;11.80;95.70;;;;;;5054903;28;20375;-58
2021/03/17 07:42:00;;;;;;;;;;;12.20;95.20;;;;;;5050311;28;20382;-56
2021/03/17 07:44:28;;;;;;;;;;;12.60;94.30;;;;;;5050882;28;19931;-57
2021/03/17 07:46:59;;;;;;;;;;;12.90;94.00;;;;;;5039107;28;19924;-56
2021/03/17 07:49:39;;;;;;;;;;;13.30;93.40;;;;;;5049061;28;20009;-56
2021/03/17 07:52:09;;;;;;;;;;;13.50;93.00;;;;;;5038680;28;19928;-56
2021/03/17 07:54:37;;;;;;;;;;;13.50;92.70;;;;;;5055885;28;20298;-56
2021/03/17 07:57:07;;;;;;;;;;;13.70;92.20;;;;;;5039912;28;19928;-57
2021/03/17 07:59:35;;;;;;;;;;;13.80;92.40;;;;;;5074148;28;19931;-57
2021/03/17 08:02:03;;;;;;;;;;;14.10;92.60;;;;;;5063535;28;19936;-56
2021/03/17 08:04:35;;;;;;;;;;;14.20;92.00;;;;;;5047451;28;19936;-59
2021/03/17 08:07:12;;;;;;;;;;;14.30;91.70;;;;;;5047219;28;20524;-60
2021/03/17 08:09:45;;;;;;;;;;;14.50;91.40;;;;;;5041102;28;19926;-58
2021/03/17 08:12:17;;;;;;;;;;;14.70;91.20;;;;;;5025528;28;19933;-59
2021/03/17 08:14:49;;;;;;;;;;;14.70;90.50;;;;;;5044095;28;19924;-56
2021/03/17 08:17:32;;;;;;;;;;;14.90;90.60;;;;;;5052385;28;19931;-57
2021/03/17 08:20:18;;;;;;;;;;;15.00;90.90;;;;;;5051874;28;20448;-58
2021/03/17 08:22:52;;;;;;;;;;;15.00;89.20;;;;;;5035080;28;19947;-59
2021/03/17 08:25:49;;;;;;;;;;;14.60;90.10;;;;;;5030702;28;19925;-58
2021/03/17 08:28:24;;;;;;;;;;;14.50;90.10;;;;;;5023042;28;19931;-58
2021/03/17 08:30:53;;;;;;;;;;;14.30;89.10;;;;;;5014918;28;19940;-58
2021/03/17 08:33:32;;;;;;;;;;;14.20;88.70;;;;;;5018058;28;19940;-58
2021/03/17 08:36:02;;;;;;;;;;;14.20;88.40;;;;;;5051621;28;20382;-58
2021/03/17 08:38:50;;;;;;;;;;;14.30;88.50;;;;;;5027982;28;19932;-58
2021/03/17 08:41:42;;;;;;;;;;;14.20;89.00;;;;;;5034479;28;19925;-60
2021/03/17 08:44:17;;;;;;;;;;;13.60;89.00;;;;;;5035050;28;20537;-59
2021/03/17 08:46:47;;;;;;;;;;;13.30;89.50;;;;;;5036211;28;19929;-58
2021/03/17 08:49:26;;;;;;;;;;;13.10;90.10;;;;;;5036403;28;19925;-58
2021/03/17 08:51:53;;;;;;;;;;;13.00;90.00;;;;;;5018918;28;20366;-58
2021/03/17 08:54:31;;;;;;;;;;;12.90;90.30;;;;;;5036001;28;20490;-57
2021/03/17 08:57:16;;;;;;;;;;;12.70;89.80;;;;;;5018345;28;19979;-57
2021/03/17 08:59:54;;;;;;;;;;;12.30;90.20;;;;;;5034957;28;19925;-59
2021/03/17 09:02:31;;;;;;;;;;;12.10;91.50;;;;;;5034630;28;19929;-58
2021/03/17 09:05:02;;;;;;;;;;;11.70;92.20;;;;;;5034711;28;19935;-60
2021/03/17 09:07:36;;;;;;;;;;;11.60;92.90;;;;;;5018898;28;19932;-59
2021/03/17 09:10:13;;;;;;;;;;;11.40;93.40;;;;;;5035767;28;19972;-57
2021/03/17 09:12:41;;;;;;;;;;;11.70;93.80;;;;;;5034934;28;19925;-57
2021/03/17 09:15:15;;;;;;;;;;;12.10;94.00;;;;;;5036076;28;19925;-59
2021/03/17 09:17:51;;;;;;;;;;;12.60;94.10;;;;;;5034747;28;20466;-59
2021/03/17 09:20:26;;;;;;;;;;;13.30;93.50;;;;;;5035828;28;19972;-59
2021/03/17 09:23:12;;;;;;;;;;;13.80;93.00;;;;;;5001629;28;19932;-59
2021/03/17 09:25:45;;;;;;;;;;;14.00;91.10;;;;;;5035550;28;19925;-58
2021/03/17 09:28:19;;;;;;;;;;;14.00;89.70;;;;;;5018501;28;19929;-58
2021/03/17 09:30:51;;;;;;;;;;;13.70;87.80;;;;;;5035983;28;19972;-59
2021/03/17 09:33:19;;;;;;;;;;;13.40;85.00;;;;;;5018189;28;19975;-58
2021/03/17 09:35:49;;;;;;;;;;;13.30;82.60;;;;;;5035448;28;20346;-56
2021/03/17 09:38:17;;;;;;;;;;;13.10;80.80;;;;;;5001527;28;20375;-58
2021/03/17 09:41:02;;;;;;;;;;;12.90;77.00;;;;;;5035726;28;20014;-59
2021/03/17 09:43:31;;;;;;;;;;;12.90;77.00;;;;;;5017975;28;19925;-59
2021/03/17 09:46:16;;;;;;;;;;;13.10;78.00;;;;;;5017410;28;19955;-59
2021/03/17 09:48:48;;;;;;;;;;;13.30;78.10;;;;;;5035299;28;19948;-59
2021/03/17 09:51:22;;;;;;;;;;;13.40;76.70;;;;;;5034129;28;20334;-59
2021/03/17 09:53:54;;;;;;;;;;;13.30;76.20;;;;;;5016560;28;19925;-59
2021/03/17 09:56:57;;;;;;;;;;;13.30;74.60;;;;;;5034847;28;19994;-59
2021/03/17 09:59:28;;;;;;;;;;;13.50;75.30;;;;;;5001568;28;19925;-59
2021/03/17 10:02:04;;;;;;;;;;;13.80;74.30;;;;;;5018866;28;19956;-58
2021/03/17 10:04:35;;;;;;;;;;;13.90;74.50;;;;;;5033028;28;20008;-59
2021/03/17 10:07:06;;;;;;;;;;;13.80;74.30;;;;;;5033467;28;19979;-59
2021/03/17 10:09:35;;;;;;;;;;;13.70;71.90;;;;;;5018146;28;20020;-58
2021/03/17 10:12:45;;;;;;;;;;;13.40;71.50;;;;;;5032622;28;19929;-58
2021/03/17 10:15:21;;;;;;;;;;;13.20;72.00;;;;;;4981640;28;20071;-59
2021/03/17 10:17:52;;;;;;;;;;;12.90;73.10;;;;;;5015925;28;19932;-58
2021/03/17 10:20:26;;;;;;;;;;;12.80;73.70;;;;;;5032174;28;19945;-57
2021/03/17 10:22:58;;;;;;;;;;;12.90;74.50;;;;;;5032736;28;19925;-58
2021/03/17 10:25:27;;;;;;;;;;;13.10;74.60;;;;;;5032951;28;19925;-58
2021/03/17 10:27:58;;;;;;;;;;;13.30;74.10;;;;;;5016123;28;20311;-57
2021/03/17 10:30:54;;;;;;;3.07;2.10;;;13.30;75.00;;;;;;5112453;27;20701;-53
2021/03/17 10:33:23;;;;;;;9.10;2.42;;;13.40;74.40;;;;;;5109973;28;20497;-57
2021/03/17 10:36:01;;;;;;;2.90;1.30;;;13.60;74.30;;;;;;5091652;28;20150;-57
2021/03/17 10:38:29;;;;;;;4.20;1.60;;;13.50;73.90;;;;;;5075104;28;20085;-58
2021/03/17 10:41:02;;;;;;;2.13;1.10;;;13.40;72.40;;;;;;5075551;28;20044;-57
2021/03/17 10:43:39;;;;;;;2.17;1.42;;;13.20;72.00;;;;;;5076634;28;20047;-58
2021/03/17 10:46:07;;;;;;;3.92;1.58;;;13.00;72.40;;;;;;5092068;28;20121;-59
2021/03/17 10:48:43;;;;;;;2.08;1.38;;;13.00;73.40;;;;;;5075262;28;20146;-59
2021/03/17 10:51:14;;;;;;;1.85;0.98;;;12.90;73.00;;;;;;5076061;28;20040;-59
2021/03/17 10:53:44;;;;;;;3.50;1.58;;;12.80;73.10;;;;;;5110335;28;20490;-58
2021/03/17 10:56:28;;;;;;;2.92;1.40;;;12.70;74.90;;;;;;5075478;28;20044;-59
2021/03/17 10:59:08;;;;;;;4.85;2.03;;;12.60;74.30;;;;;;5091489;28;20133;-59
2021/03/17 11:01:36;;;;;;;6.30;2.65;;;12.70;74.60;;;;;;5109335;28;20063;-59
2021/03/17 11:04:07;;;;;;;3.95;1.83;;;13.00;75.20;;;;;;5092526;28;20051;-58
2021/03/17 11:06:35;;;;;;;3.08;1.50;;;13.40;74.60;;;;;;5088250;28;20575;-57
2021/03/17 11:09:18;;;;;;;2.05;1.33;;;13.70;73.50;;;;;;5055944;28;20135;-58
2021/03/17 11:11:53;;;;;;;2.05;1.35;;;13.90;71.40;;;;;;5055308;28;20077;-58
2021/03/17 11:14:36;;;;;;;4.00;1.40;;;13.70;70.90;;;;;;5087910;28;20836;-58
2021/03/17 11:17:08;;;;;;;3.03;1.45;;;13.70;70.90;;;;;;5089231;28;20135;-58
2021/03/17 11:19:36;;;;;;;3.80;1.98;;;13.60;70.80;;;;;;5088677;28;20382;-58
2021/03/17 11:22:05;;;;;;;3.10;1.35;;;13.50;71.60;;;;;;5070661;28;20394;-57
2021/03/17 11:24:33;;;;;;;2.30;1.63;;;13.40;70.80;;;;;;5037055;28;20052;-58
2021/03/17 11:27:06;;;;;;;3.63;2.00;;;13.40;72.50;;;;;;5054312;28;20068;-57
2021/03/17 11:29:51;;;;;;;3.13;1.70;;;13.50;71.50;;;;;;5055086;28;20063;-58
2021/03/17 11:32:31;;;;;;;3.45;1.77;;;13.40;71.00;;;;;;5070531;28;20036;-58
2021/03/17 11:35:03;;;;;;;5.22;1.50;;;13.30;70.10;;;;;;5088794;28;20143;-57
2021/03/17 11:37:40;;;;;;;7.30;1.85;;;13.40;71.20;;;;;;5054266;28;20044;-58
2021/03/17 11:40:12;;;;;;;3.25;1.98;;;13.40;71.70;;;;;;5068087;28;20053;-59
2021/03/17 11:42:49;;;;;;;5.00;1.55;;;13.30;71.00;;;;;;5041234;28;20040;-58
2021/03/17 11:45:25;;;;;;;3.15;1.52;;;13.20;70.60;;;;;;5057220;28;20044;-59
2021/03/17 11:47:55;;;;;;;2.13;1.30;;;13.10;71.10;;;;;;5073443;28;20121;-58
2021/03/17 11:50:23;;;;;;;5.18;2.25;;;13.00;71.50;;;;;;5074646;28;20479;-58
2021/03/17 11:52:54;;;;;;;2.63;1.88;;;12.90;71.50;;;;;;5075270;28;20124;-58
2021/03/17 11:55:27;;;;;;;5.53;1.80;;;12.90;71.90;;;;;;5025345;28;20131;-59
2021/03/17 11:58:16;;;;;;;2.95;1.52;;;12.80;70.90;;;;;;5028410;28;20056;-55
2021/03/17 12:00:52;;;;;;;2.42;1.75;;;12.70;70.10;;;;;;5074223;28;20048;-57
2021/03/17 12:03:40;;;;;;;3.45;2.03;;;12.60;71.00;;;;;;5056911;28;20037;-57
2021/03/17 12:06:12;;;;;;;5.60;2.00;;;12.70;71.90;;;;;;5041009;28;20094;-56
2021/03/17 12:08:46;;;;;;;4.03;2.03;;;12.70;71.60;;;;;;5056211;28;20047;-58
2021/03/17 12:11:20;;;;;;;6.03;2.50;;;12.90;70.80;;;;;;5057298;28;20052;-56
2021/03/17 12:13:48;;;;;;;2.83;1.73;;;13.10;71.30;;;;;;5040492;28;20040;-55
2021/03/17 12:16:19;;;;;;;3.88;1.52;;;13.30;70.00;;;;;;5023158;28;20082;-58
2021/03/17 12:18:50;;;;;;;3.78;1.42;;;13.60;73.20;;;;;;5074503;28;20074;-57
2021/03/17 12:21:18;;;;;;;2.28;1.20;;;13.70;66.50;;;;;;5039857;28;20449;-58
2021/03/17 12:23:47;;;;;;;2.60;1.27;;;13.60;62.60;;;;;;5040527;28;20044;-58
2021/03/17 12:26:20;;;;;;;1.92;1.25;;;13.40;61.90;;;;;;5073894;28;20056;-57
2021/03/17 12:28:48;;;;;;;2.60;1.48;;;13.30;62.60;;;;;;5039973;28;20049;-57
2021/03/17 12:31:19;;;;;;;2.60;1.50;;;13.10;64.70;;;;;;5056880;28;20051;-58
2021/03/17 12:33:46;;;;;;;2.60;1.50;;;13.10;66.80;;;;;;5073311;28;20131;-56
2021/03/17 12:36:17;;;;;;;1.45;1.08;;;13.10;68.40;;;;;;5023977;28;20060;-58
2021/03/17 12:38:48;;;;;;;3.28;1.85;;;13.20;66.80;;;;;;5056798;28;20056;-58
2021/03/17 12:41:25;;;;;;;2.58;1.20;;;13.30;68.00;;;;;;5056060;28;20075;-58
2021/03/17 12:43:55;;;;;;;6.45;1.90;;;13.50;66.80;;;;;;5039973;28;20111;-57
2021/03/17 12:46:23;;;;;;;4.60;2.38;;;13.50;67.10;;;;;;5056438;28;20098;-58
2021/03/17 12:48:53;;;;;;;3.03;1.58;;;13.60;67.30;;;;;;5055923;28;20044;-56
2021/03/17 12:51:26;;;;;;;2.33;1.40;;;13.70;67.00;;;;;;5056026;28;20133;-59
2021/03/17 12:53:56;;;;;;;1.85;1.10;;;13.60;67.70;;;;;;5039536;28;20086;-57
2021/03/17 12:56:24;;;;;;;2.53;1.77;;;13.70;67.80;;;;;;5039667;28;20052;-58
2021/03/17 12:59:01;;;;;;;2.03;1.20;;;13.60;66.80;;;;;;5057894;28;20512;-57
2021/03/17 13:01:29;;;;;;;1.75;1.25;;;13.50;66.80;;;;;;5055686;28;20358;-58
2021/03/17 13:04:02;;;;;;;2.53;1.77;;;13.40;67.70;;;;;;5039962;28;20080;-58
2021/03/17 13:06:39;;;;;;;3.88;1.40;;;13.40;68.00;;;;;;5057075;28;20053;-58
2021/03/17 13:09:07;;;;;;;3.38;1.23;;;13.40;67.70;;;;;;5055078;28;20044;-58
2021/03/17 13:11:38;;;;;;;1.85;1.45;;;13.30;66.30;;;;;;5055515;28;20052;-58
2021/03/17 13:14:11;;;;;;;2.20;1.50;;;13.30;66.00;;;;;;5055443;28;20072;-59
2021/03/17 13:16:41;;;;;;;2.83;1.77;;;13.10;66.30;;;;;;5073346;28;20403;-58
2021/03/17 13:19:12;;;;;;;2.65;1.65;;;13.10;66.60;;;;;;5022377;28;20109;-57
2021/03/17 13:21:43;;;;;;;3.05;1.65;;;13.00;66.60;;;;;;5073040;28;20514;-56
2021/03/17 13:24:14;;;;;;;1.85;1.17;;;12.90;66.80;;;;;;5039083;28;20403;-56
2021/03/17 13:26:52;;;;;;;3.63;1.20;;;12.90;67.70;;;;;;5055717;28;20090;-59
2021/03/17 13:29:22;;;;;;;1.27;1.08;;;12.90;66.10;;;;;;5056068;28;20410;-58
2021/03/17 13:32:01;;;;;;;2.47;1.00;;;12.80;63.80;;;;;;5038994;28;20106;-58
2021/03/17 13:34:32;;;;;;;1.98;1.10;;;12.70;64.50;;;;;;5072677;28;20041;-56
2021/03/17 13:37:00;;;;;;;3.63;1.55;;;12.70;66.60;;;;;;5055585;28;20054;-58
2021/03/17 13:39:27;;;;;;;1.92;1.25;;;12.80;66.50;;;;;;5055238;28;20063;-58
2021/03/17 13:41:55;;;;;;;1.77;1.30;;;12.90;65.90;;;;;;5022214;28;20135;-58
2021/03/17 13:44:34;;;;;;;2.85;1.10;;;13.00;65.50;;;;;;5035773;28;20048;-58
2021/03/17 13:47:10;;;;;;;2.22;1.10;;;13.00;65.80;;;;;;5072473;28;20552;-58
2021/03/17 13:49:38;;;;;;;3.13;1.13;;;13.10;67.20;;;;;;5056481;28;20072;-59
2021/03/17 13:52:23;;;;;;;1.05;0.82;;;13.10;67.10;;;;;;5054869;28;20055;-59
2021/03/17 13:54:53;;;;;;;1.38;1.08;;;13.00;65.80;;;;;;5073226;28;20132;-58
2021/03/17 13:57:33;;;;;;;1.67;1.23;;;13.00;66.60;;;;;;5041628;28;20612;-58
2021/03/17 14:00:02;;;;;;;3.22;1.00;;;13.10;65.80;;;;;;5038943;28;20063;-59
2021/03/17 14:02:42;;;;;;;5.53;1.35;;;13.20;66.70;;;;;;5056076;28;20131;-58
2021/03/17 14:05:23;;;;;;;4.60;1.50;;;13.30;66.90;;;;;;5054656;28;20044;-59
2021/03/17 14:07:50;;;;;;;2.70;1.25;;;13.20;68.10;;;;;;5055254;28;20044;-58
2021/03/17 14:10:30;;;;;;;7.70;1.70;;;13.20;68.00;;;;;;5038508;28;20143;-58
2021/03/17 14:16:06;;;;;;;3.03;1.90;;;13.00;67.00;;;;;;5053115;28;20056;-58
2021/03/17 14:18:34;;;;;;;3.47;1.48;;;13.10;66.60;;;;;;5054653;28;20043;-58
2021/03/17 14:21:02;;;;;;;2.92;1.48;;;13.00;66.80;;;;;;5036982;28;20121;-57
2021/03/17 14:23:29;;;;;;;2.50;1.75;;;13.00;66.90;;;;;;5043089;28;20376;-57
2021/03/17 14:25:59;;;;;;;2.80;1.33;;;12.80;66.50;;;;;;5042299;28;20051;-58
2021/03/17 14:28:26;;;;;;;4.43;1.60;;;12.60;66.80;;;;;;5043879;28;20036;-58
2021/03/17 14:30:54;;;;;;;3.60;1.42;;;12.50;67.50;;;;;;5043750;28;20041;-60
2021/03/17 14:33:27;;;;;;;3.47;1.70;;;12.30;68.30;;;;;;5042180;28;20061;-58